createdAt,value
2022-10-13T00:00:48.023Z,164.05
2022-10-13T00:03:16.970Z,173.63
2022-10-13T00:05:47.554Z,165.48
2022-10-13T00:08:19.842Z,163.45
2022-10-13T00:10:50.625Z,167.55
2022-10-13T00:13:19.377Z,167.23
2022-10-13T00:15:48.862Z,169.73
2022-10-13T00:18:17.562Z,163.75
2022-10-13T00:20:47.139Z,177.70
2022-10-13T00:23:15.622Z,180.77
2022-10-13T00:25:44.228Z,183.90
2022-10-13T00:28:14.122Z,185.70
2022-10-13T00:30:42.645Z,186.23
2022-10-13T00:33:11.684Z,188.35
2022-10-13T00:35:43.201Z,184.63
2022-10-13T00:38:11.703Z,186.15
2022-10-13T00:40:47.150Z,185.35
2022-10-13T00:43:21.242Z,172.00
2022-10-13T00:45:52.759Z,167.80
2022-10-13T00:48:27.790Z,155.43
2022-10-13T00:50:57.158Z,155.48
2022-10-13T00:53:31.349Z,161.55
2022-10-13T00:55:59.724Z,162.20
2022-10-13T00:58:31.540Z,158.60
2022-10-13T01:01:00.374Z,160.77
2022-10-13T01:03:28.416Z,158.95
2022-10-13T01:06:00.068Z,162.60
2022-10-13T01:08:30.142Z,161.23
2022-10-13T01:11:11.310Z,164.75
2022-10-13T01:13:47.848Z,160.52
2022-10-13T01:16:24.432Z,172.05
2022-10-13T01:18:58.251Z,153.45
2022-10-13T01:21:34.332Z,153.15
2022-10-13T01:24:35.417Z,148.45
2022-10-13T01:27:32.481Z,153.43
2022-10-13T01:30:15.533Z,145.82
2022-10-13T01:33:16.231Z,143.85
2022-10-13T01:35:59.378Z,144.10
2022-10-13T01:38:35.136Z,150.57
2022-10-13T01:41:12.920Z,153.88
2022-10-13T01:43:44.277Z,148.60
2022-10-13T01:46:17.404Z,154.73
2022-10-13T01:48:46.659Z,156.20
2022-10-13T01:51:19.305Z,152.90
2022-10-13T01:53:48.519Z,149.65
2022-10-13T01:56:16.624Z,168.10
2022-10-13T01:58:45.808Z,162.65
2022-10-13T02:01:29.772Z,164.00
2022-10-13T02:04:11.000Z,153.73
2022-10-13T02:06:42.747Z,143.02
2022-10-13T02:09:18.614Z,144.85
2022-10-13T02:11:52.468Z,152.57
2022-10-13T02:14:26.347Z,141.80
2022-10-13T02:16:57.448Z,149.15
2022-10-13T02:19:25.747Z,153.60
2022-10-13T02:21:54.424Z,149.27
2022-10-13T02:24:22.641Z,144.18
2022-10-13T02:26:52.362Z,149.60
2022-10-13T02:29:20.536Z,151.38
2022-10-13T02:31:48.923Z,144.57
2022-10-13T02:34:18.406Z,154.32
2022-10-13T02:36:46.272Z,143.43
2022-10-13T02:39:14.378Z,136.73
2022-10-13T02:41:42.508Z,139.05
2022-10-13T02:44:10.532Z,141.23
2022-10-13T02:46:38.592Z,140.25
2022-10-13T02:49:06.481Z,145.60
2022-10-13T02:51:39.907Z,138.65
2022-10-13T02:54:08.469Z,139.35
2022-10-13T02:56:36.389Z,140.30
2022-10-13T02:59:04.207Z,122.45
2022-10-13T03:01:32.922Z,133.70
2022-10-13T03:04:01.002Z,147.43
2022-10-13T03:06:29.943Z,164.95
2022-10-13T03:08:59.335Z,170.35
2022-10-13T03:11:27.558Z,168.15
2022-10-13T03:13:55.663Z,176.07
2022-10-13T03:16:23.532Z,165.57
2022-10-13T03:18:51.675Z,163.82
2022-10-13T03:21:19.552Z,164.98
2022-10-13T03:23:47.342Z,163.57
2022-10-13T03:26:16.980Z,168.07
2022-10-13T03:28:44.938Z,168.18
2022-10-13T03:31:13.677Z,172.02
2022-10-13T03:33:42.213Z,180.52
2022-10-13T03:36:11.701Z,178.60
2022-10-13T03:38:39.512Z,177.35
2022-10-13T03:41:08.245Z,183.38
2022-10-13T03:43:37.516Z,186.75
2022-10-13T03:46:07.202Z,182.27
2022-10-13T03:48:36.583Z,178.07
2022-10-13T03:51:06.414Z,189.30
2022-10-13T03:53:34.592Z,189.23
2022-10-13T03:56:02.980Z,181.52
2022-10-13T03:58:31.097Z,188.93
2022-10-13T04:01:04.869Z,191.38
2022-10-13T04:03:33.634Z,183.23
2022-10-13T04:06:02.912Z,182.88
2022-10-13T04:08:31.007Z,188.45
2022-10-13T04:11:02.593Z,187.52
2022-10-13T04:13:30.535Z,187.30
2022-10-13T04:16:04.676Z,185.27
2022-10-13T04:18:32.817Z,188.57
2022-10-13T04:21:00.771Z,182.85
2022-10-13T04:23:28.749Z,190.43
2022-10-13T04:25:57.417Z,192.75
2022-10-13T04:28:25.329Z,199.25
2022-10-13T04:30:53.380Z,197.45
2022-10-13T04:33:22.617Z,199.60
2022-10-13T04:35:50.665Z,190.75
2022-10-13T04:38:18.623Z,193.25
2022-10-13T04:40:46.429Z,189.48
2022-10-13T04:43:15.935Z,196.65
2022-10-13T04:45:43.896Z,194.27
2022-10-13T04:48:11.883Z,193.43
2022-10-13T04:50:41.510Z,193.20
2022-10-13T04:53:09.538Z,193.88
2022-10-13T04:55:38.156Z,191.70
2022-10-13T04:58:06.209Z,200.15
2022-10-13T05:00:34.455Z,190.10
2022-10-13T05:03:02.521Z,187.43
2022-10-13T05:05:30.875Z,180.00
2022-10-13T05:08:00.198Z,180.60
2022-10-13T05:10:31.306Z,181.15
2022-10-13T05:13:02.442Z,187.48
2022-10-13T05:15:30.793Z,178.30
2022-10-13T05:17:59.813Z,189.13
2022-10-13T05:20:28.478Z,183.95
2022-10-13T05:22:56.555Z,194.25
2022-10-13T05:25:29.193Z,186.93
2022-10-13T05:27:59.397Z,186.23
2022-10-13T05:30:27.276Z,178.80
2022-10-13T05:32:55.117Z,174.20
2022-10-13T05:35:22.976Z,170.23
2022-10-13T05:37:50.802Z,169.73
2022-10-13T05:40:21.369Z,153.85
2022-10-13T05:42:51.995Z,158.43
2022-10-13T05:45:22.742Z,164.20
2022-10-13T05:47:50.755Z,174.25
2022-10-13T05:50:18.635Z,170.98
2022-10-13T05:52:46.980Z,180.02
2022-10-13T05:55:19.889Z,157.32
2022-10-13T05:57:53.170Z,151.43
2022-10-13T06:00:21.645Z,159.45
2022-10-13T06:02:53.563Z,178.48
2022-10-13T06:05:24.749Z,186.10
2022-10-13T06:07:53.197Z,188.60
2022-10-13T06:10:21.404Z,181.65
2022-10-13T06:12:49.207Z,196.55
2022-10-13T06:15:18.989Z,185.73
2022-10-13T06:17:46.742Z,194.77
2022-10-13T06:20:14.616Z,191.98
2022-10-13T06:22:44.891Z,206.57
2022-10-13T06:25:12.723Z,193.43
2022-10-13T06:27:41.039Z,189.48
2022-10-13T06:30:10.108Z,188.93
2022-10-13T06:32:39.446Z,187.20
2022-10-13T06:35:08.753Z,190.23
2022-10-13T06:37:36.943Z,187.95
2022-10-13T06:40:05.699Z,191.80
2022-10-13T06:42:34.802Z,188.75
2022-10-13T06:45:03.301Z,194.45
2022-10-13T06:47:31.147Z,190.60
2022-10-13T06:50:00.362Z,196.35
2022-10-13T06:52:28.179Z,192.20
2022-10-13T06:54:56.180Z,196.05
2022-10-13T06:57:24.307Z,193.63
2022-10-13T06:59:53.040Z,189.45
2022-10-13T07:02:21.152Z,197.48
2022-10-13T07:04:49.288Z,188.15
2022-10-13T07:07:18.770Z,190.18
2022-10-13T07:09:46.570Z,195.10
2022-10-13T07:12:14.436Z,192.40
2022-10-13T07:14:43.877Z,184.70
2022-10-13T07:17:12.521Z,185.02
2022-10-13T07:19:40.392Z,195.32
2022-10-13T07:22:11.522Z,196.95
2022-10-13T07:24:40.804Z,194.40
2022-10-13T07:27:09.387Z,195.63
2022-10-13T07:29:37.992Z,190.45
2022-10-13T07:32:06.568Z,194.20
2022-10-13T07:34:34.843Z,184.25
2022-10-13T07:37:02.694Z,184.02
2022-10-13T07:39:30.937Z,184.98
2022-10-13T07:42:00.206Z,191.70
2022-10-13T07:44:28.559Z,192.77
2022-10-13T07:46:56.381Z,189.55
2022-10-13T07:49:24.661Z,193.40
2022-10-13T07:51:52.875Z,188.27
2022-10-13T07:54:23.796Z,182.88
2022-10-13T07:56:56.285Z,179.52
2022-10-13T07:59:25.971Z,185.10
2022-10-13T08:01:54.257Z,183.00
2022-10-13T08:04:22.147Z,184.05
2022-10-13T08:06:49.954Z,187.82
2022-10-13T08:09:18.102Z,192.35
2022-10-13T08:11:45.888Z,185.07
2022-10-13T08:14:14.778Z,193.70
2022-10-13T08:16:48.645Z,185.10
2022-10-13T08:19:22.112Z,184.38
2022-10-13T08:21:58.047Z,183.50
2022-10-13T08:24:26.419Z,190.82
2022-10-13T08:26:54.601Z,199.07
2022-10-13T08:29:23.872Z,196.25
2022-10-13T08:31:54.812Z,199.25
2022-10-13T08:34:23.114Z,195.98
2022-10-13T08:36:53.507Z,194.73
2022-10-13T08:39:23.008Z,195.40
2022-10-13T08:41:51.782Z,201.43
2022-10-13T08:47:24.246Z,201.15
2022-10-13T08:49:56.494Z,198.63
2022-10-13T08:52:28.992Z,197.02
2022-10-13T08:54:58.435Z,198.50
2022-10-13T08:57:26.694Z,198.57
2022-10-13T08:59:55.041Z,196.23
2022-10-13T09:02:32.859Z,197.52
2022-10-13T09:05:04.316Z,192.52
2022-10-13T09:07:36.306Z,202.13
2022-10-13T09:10:05.065Z,199.23
2022-10-13T09:12:33.969Z,196.18
2022-10-13T09:15:05.306Z,193.80
2022-10-13T09:17:35.830Z,192.18
2022-10-13T09:20:08.581Z,199.35
2022-10-13T09:22:38.251Z,208.95
2022-10-13T09:25:11.347Z,216.95
2022-10-13T09:27:48.163Z,208.45
2022-10-13T09:30:29.901Z,208.02
2022-10-13T09:33:15.820Z,210.15
2022-10-13T09:35:45.616Z,208.45
2022-10-13T09:38:18.996Z,204.40
2022-10-13T09:41:01.741Z,207.32
2022-10-13T09:43:32.958Z,209.50
2022-10-13T09:46:02.784Z,216.40
2022-10-13T09:48:35.873Z,215.07
2022-10-13T09:51:03.966Z,212.55
2022-10-13T09:53:34.656Z,217.85
2022-10-13T09:56:11.980Z,216.88
2022-10-13T10:01:25.933Z,218.57
2022-10-13T10:03:56.396Z,211.02
2022-10-13T10:06:27.690Z,212.20
2022-10-13T10:09:04.828Z,209.85
2022-10-13T10:11:38.801Z,212.15
2022-10-13T10:14:17.384Z,211.45
2022-10-13T10:16:51.056Z,211.55
2022-10-13T10:19:26.867Z,209.68
2022-10-13T10:22:04.184Z,213.93
2022-10-13T10:24:39.760Z,213.60
2022-10-13T10:27:13.012Z,217.55
2022-10-13T10:29:47.862Z,216.40
2022-10-13T10:32:29.234Z,220.73
2022-10-13T10:35:03.389Z,219.63
2022-10-13T10:37:45.510Z,217.85
2022-10-13T10:40:26.725Z,218.40
2022-10-13T10:43:06.085Z,222.82
2022-10-13T10:45:38.864Z,215.45
2022-10-13T10:48:24.097Z,220.75
2022-10-13T10:50:54.921Z,215.10
2022-10-13T10:53:33.046Z,221.75
2022-10-13T10:56:09.194Z,218.95
2022-10-13T10:58:46.356Z,220.23
2022-10-13T11:01:30.590Z,217.32
2022-10-13T11:04:10.611Z,217.25
2022-10-13T11:06:40.365Z,228.77
2022-10-13T11:09:11.003Z,217.60
2022-10-13T11:11:41.238Z,225.30
2022-10-13T11:14:31.038Z,222.40
2022-10-13T11:17:19.146Z,218.68
2022-10-13T11:19:50.049Z,216.55
2022-10-13T11:22:23.117Z,222.98
2022-10-13T11:25:17.129Z,225.70
2022-10-13T11:27:45.594Z,231.57
2022-10-13T11:30:50.972Z,220.93
2022-10-13T11:33:55.567Z,218.15
2022-10-13T11:36:49.835Z,212.07
2022-10-13T11:39:55.505Z,220.57
2022-10-13T11:42:40.368Z,209.48
2022-10-13T11:45:22.723Z,206.68
2022-10-13T11:48:04.246Z,214.30
2022-10-13T11:50:40.061Z,221.23
2022-10-13T11:53:19.127Z,216.25
2022-10-13T11:55:52.926Z,214.80
2022-10-13T11:58:23.955Z,214.45
2022-10-13T12:00:57.482Z,211.27
2022-10-13T12:03:29.858Z,215.23
2022-10-13T12:06:02.024Z,209.93
2022-10-13T12:08:31.976Z,205.90
2022-10-13T12:11:04.952Z,211.27
2022-10-13T12:13:35.652Z,211.75
2022-10-13T12:16:06.590Z,215.93
2022-10-13T12:18:38.301Z,220.80
2022-10-13T12:21:12.010Z,213.60
2022-10-13T12:23:40.433Z,224.65
2022-10-13T12:26:18.591Z,219.07
2022-10-13T12:28:51.695Z,221.25
2022-10-13T12:31:22.490Z,221.07
2022-10-13T12:33:55.669Z,217.85
2022-10-13T12:36:30.455Z,222.23
2022-10-13T12:39:02.797Z,212.85
2022-10-13T12:41:34.822Z,220.98
2022-10-13T12:44:06.518Z,219.93
2022-10-13T12:46:44.126Z,222.27
2022-10-13T12:49:17.046Z,215.48
2022-10-13T12:51:47.837Z,226.52
2022-10-13T12:54:22.941Z,222.05
2022-10-13T12:56:56.415Z,230.23
2022-10-13T12:59:27.009Z,215.88
2022-10-13T13:01:59.006Z,223.45
2022-10-13T13:04:32.891Z,218.57
2022-10-13T13:07:02.061Z,225.05
2022-10-13T13:09:31.680Z,223.70
2022-10-13T13:12:27.853Z,229.93
2022-10-13T13:14:56.422Z,223.10
2022-10-13T13:17:57.832Z,226.45
2022-10-13T13:20:26.828Z,223.40
2022-10-13T13:22:57.740Z,232.90
2022-10-13T13:25:26.988Z,226.30
2022-10-13T13:27:56.284Z,230.00
2022-10-13T13:30:25.351Z,232.90
2022-10-13T13:32:53.188Z,229.10
2022-10-13T13:35:21.028Z,231.05
2022-10-13T13:37:51.392Z,229.23
2022-10-13T13:40:21.281Z,233.93
2022-10-13T13:42:49.202Z,242.88
2022-10-13T13:45:21.386Z,240.98
2022-10-13T13:47:49.699Z,233.05
2022-10-13T13:50:21.468Z,230.88
2022-10-13T13:52:49.497Z,231.57
2022-10-13T13:55:17.518Z,235.20
2022-10-13T13:57:45.955Z,232.82
2022-10-13T14:00:15.772Z,230.82
2022-10-13T14:02:46.223Z,236.25
2022-10-13T14:05:14.568Z,229.00
2022-10-13T14:07:43.181Z,228.80
2022-10-13T14:10:12.277Z,239.85
2022-10-13T14:12:40.506Z,228.27
2022-10-13T14:15:09.582Z,234.90
2022-10-13T14:17:37.439Z,225.25
2022-10-13T14:20:08.097Z,235.52
2022-10-13T14:22:38.690Z,225.80
2022-10-13T14:25:07.846Z,219.82
2022-10-13T14:27:37.357Z,225.85
2022-10-13T14:30:06.168Z,225.18
2022-10-13T14:32:34.213Z,231.13
2022-10-13T14:35:02.296Z,231.15
2022-10-13T14:37:33.736Z,238.75
2022-10-13T14:40:02.054Z,228.77
2022-10-13T14:42:30.248Z,231.60
2022-10-13T14:44:58.144Z,232.20
2022-10-13T14:47:25.999Z,230.52
2022-10-13T14:49:54.460Z,232.70
2022-10-13T14:52:22.256Z,238.95
2022-10-13T14:54:54.684Z,247.93
2022-10-13T14:57:25.085Z,233.93
2022-10-13T14:59:55.749Z,234.73
2022-10-13T15:02:26.060Z,228.73
2022-10-13T15:04:53.969Z,230.52
2022-10-13T15:07:22.153Z,230.07
2022-10-13T15:10:04.509Z,226.65
2022-10-13T15:12:34.003Z,232.27
2022-10-13T15:15:01.923Z,226.55
2022-10-13T15:17:31.620Z,226.32
2022-10-13T15:19:59.590Z,229.73
2022-10-13T15:22:27.810Z,231.52
2022-10-13T15:24:57.128Z,227.20
2022-10-13T15:27:25.483Z,228.05
2022-10-13T15:29:53.554Z,222.57
2022-10-13T15:32:21.820Z,217.32
2022-10-13T15:34:49.908Z,227.30
2022-10-13T15:37:18.021Z,219.63
2022-10-13T15:39:45.976Z,222.00
2022-10-13T15:42:15.660Z,230.38
2022-10-13T15:47:31.412Z,213.88
2022-10-13T15:49:59.305Z,207.50
2022-10-13T15:52:29.768Z,209.18
2022-10-13T15:55:01.948Z,201.32
2022-10-13T15:57:31.778Z,199.95
2022-10-13T15:59:59.765Z,215.50
2022-10-13T16:02:27.537Z,208.70
2022-10-13T16:04:56.816Z,209.65
2022-10-13T16:07:24.660Z,216.30
2022-10-13T16:09:52.640Z,208.55
2022-10-13T16:12:20.857Z,207.68
2022-10-13T16:14:50.421Z,203.25
2022-10-13T16:17:18.269Z,208.43
2022-10-13T16:19:46.134Z,206.13
2022-10-13T16:22:14.330Z,205.95
2022-10-13T16:24:42.436Z,208.25
2022-10-13T16:27:10.413Z,212.80
2022-10-13T16:29:38.258Z,210.68
2022-10-13T16:32:07.470Z,217.98
2022-10-13T16:34:35.316Z,213.30
2022-10-13T16:37:03.464Z,213.23
2022-10-13T16:39:31.490Z,216.85
2022-10-13T16:41:59.309Z,215.75
2022-10-13T16:44:27.084Z,209.32
2022-10-13T16:46:56.923Z,209.30
2022-10-13T16:49:26.387Z,212.90
2022-10-13T16:51:54.426Z,220.15
2022-10-13T16:54:22.382Z,212.50
2022-10-13T16:56:51.434Z,218.70
2022-10-13T16:59:19.249Z,211.00
2022-10-13T17:01:47.479Z,216.07
2022-10-13T17:04:19.728Z,220.18
2022-10-13T17:06:52.875Z,215.38
2022-10-13T17:09:21.229Z,215.00
2022-10-13T17:11:49.420Z,217.07
2022-10-13T17:14:17.361Z,215.02
2022-10-13T17:16:45.272Z,208.43
2022-10-13T17:19:13.511Z,215.25
2022-10-13T17:21:41.612Z,217.73
2022-10-13T17:24:11.136Z,218.43
2022-10-13T17:26:39.197Z,213.13
2022-10-13T17:29:07.167Z,222.85
2022-10-13T17:31:35.225Z,214.05
2022-10-13T17:34:06.406Z,223.57
2022-10-13T17:36:34.643Z,210.82
2022-10-13T17:39:06.371Z,215.38
2022-10-13T17:41:36.931Z,215.90
2022-10-13T17:44:05.146Z,216.35
2022-10-13T17:46:38.707Z,214.98
2022-10-13T17:49:08.521Z,214.00
2022-10-13T17:51:36.639Z,211.90
2022-10-13T17:54:05.278Z,223.15
2022-10-13T17:56:33.162Z,214.05
2022-10-13T17:59:03.037Z,211.40
2022-10-13T18:01:33.047Z,212.98
2022-10-13T18:04:03.867Z,212.20
2022-10-13T18:06:38.486Z,210.65
2022-10-13T18:09:08.283Z,213.57
2022-10-13T18:11:36.554Z,223.80
2022-10-13T18:14:06.610Z,219.55
2022-10-13T18:16:35.008Z,215.95
2022-10-13T18:19:03.224Z,219.20
2022-10-13T18:21:31.096Z,214.75
2022-10-13T18:24:00.615Z,213.63
2022-10-13T18:26:31.877Z,211.25
2022-10-13T18:28:59.817Z,218.75
2022-10-13T18:31:30.643Z,213.40
2022-10-13T18:34:00.418Z,213.73
2022-10-13T18:36:29.690Z,216.68
2022-10-13T18:39:02.612Z,213.43
2022-10-13T18:41:30.507Z,222.85
2022-10-13T18:43:58.897Z,213.50
2022-10-13T18:46:27.038Z,213.00
2022-10-13T18:48:57.241Z,212.27
2022-10-13T18:51:26.357Z,208.48
2022-10-13T18:53:54.654Z,216.00
2022-10-13T18:56:24.121Z,219.40
2022-10-13T18:58:58.453Z,214.85
2022-10-13T19:01:29.657Z,208.50
2022-10-13T19:03:59.704Z,207.10
2022-10-13T19:06:30.393Z,213.38
2022-10-13T19:09:01.184Z,212.00
2022-10-13T19:11:30.693Z,215.30
2022-10-13T19:14:00.064Z,220.20
2022-10-13T19:16:30.306Z,213.73
2022-10-13T19:19:00.207Z,206.07
2022-10-13T19:21:28.651Z,200.77
2022-10-13T19:24:00.907Z,206.88
2022-10-13T19:26:32.318Z,204.55
2022-10-13T19:29:02.113Z,209.13
2022-10-13T19:31:34.346Z,211.38
2022-10-13T19:34:03.968Z,206.50
2022-10-13T19:36:34.545Z,207.18
2022-10-13T19:39:03.157Z,208.10
2022-10-13T19:41:34.252Z,204.68
2022-10-13T19:44:02.421Z,210.13
2022-10-13T19:46:30.638Z,202.73
2022-10-13T19:48:58.657Z,209.07
2022-10-13T19:51:28.167Z,205.85
2022-10-13T19:53:55.990Z,201.68
2022-10-13T19:56:25.502Z,200.75
2022-10-13T19:58:54.269Z,200.55
2022-10-13T20:01:22.743Z,191.98
2022-10-13T20:03:51.959Z,200.85
2022-10-13T20:06:20.624Z,201.07
2022-10-13T20:08:49.990Z,194.38
2022-10-13T20:11:23.817Z,199.05
2022-10-13T20:13:53.578Z,209.40
2022-10-13T20:16:23.951Z,209.43
2022-10-13T20:18:53.488Z,205.80
2022-10-13T20:21:21.698Z,207.52
2022-10-13T20:23:51.908Z,204.25
2022-10-13T20:26:20.314Z,206.10
2022-10-13T20:28:49.761Z,213.70
2022-10-13T20:31:20.336Z,209.90
2022-10-13T20:33:49.520Z,207.35
2022-10-13T20:36:20.468Z,206.85
2022-10-13T20:38:49.173Z,206.43
2022-10-13T20:41:21.549Z,216.35
2022-10-13T20:43:50.609Z,206.02
2022-10-13T20:46:20.290Z,211.25
2022-10-13T20:51:40.042Z,207.93
2022-10-13T20:54:08.165Z,203.90
2022-10-13T20:56:37.849Z,212.63
2022-10-13T20:59:09.293Z,202.80
2022-10-13T21:01:37.626Z,202.70
2022-10-13T21:04:06.242Z,202.90
2022-10-13T21:06:35.861Z,202.70
2022-10-13T21:09:04.284Z,204.38
2022-10-13T21:11:32.126Z,207.75
2022-10-13T21:14:06.232Z,210.23
2022-10-13T21:16:35.268Z,204.05
2022-10-13T21:19:03.669Z,200.95
2022-10-13T21:21:33.146Z,194.10
2022-10-13T21:24:02.954Z,197.40
2022-10-13T21:26:32.193Z,200.45
2022-10-13T21:29:02.581Z,199.23
2022-10-13T21:31:30.736Z,210.35
2022-10-13T21:33:58.992Z,202.82
2022-10-13T21:36:28.686Z,199.02
2022-10-13T21:38:59.008Z,199.02
2022-10-13T21:41:27.188Z,195.75
2022-10-13T21:43:55.525Z,191.75
2022-10-13T21:46:26.756Z,198.00
2022-10-13T21:48:56.606Z,198.40
2022-10-13T21:51:26.617Z,196.30
2022-10-13T21:53:56.856Z,193.02
2022-10-13T21:56:26.462Z,198.07
2022-10-13T21:58:55.270Z,193.30
2022-10-13T22:01:25.099Z,194.50
2022-10-13T22:03:56.306Z,191.55
2022-10-13T22:06:25.048Z,196.88
2022-10-13T22:08:55.499Z,198.35
2022-10-13T22:11:25.072Z,197.15
2022-10-13T22:13:55.516Z,200.85
2022-10-13T22:16:26.483Z,197.60
2022-10-13T22:18:55.938Z,200.77
2022-10-13T22:21:25.519Z,200.60
2022-10-13T22:23:57.567Z,191.65
2022-10-13T22:26:26.141Z,191.57
2022-10-13T22:28:54.181Z,193.73
2022-10-13T22:31:22.443Z,195.30
2022-10-13T22:33:53.812Z,195.70
2022-10-13T22:36:24.009Z,193.00
2022-10-13T22:38:53.997Z,216.00
2022-10-13T22:41:23.298Z,199.65
2022-10-13T22:43:52.504Z,192.70
2022-10-13T22:46:22.418Z,185.32
2022-10-13T22:48:52.229Z,185.35
2022-10-13T22:51:22.125Z,176.52
2022-10-13T22:53:51.113Z,174.55
2022-10-13T22:56:21.586Z,176.90
2022-10-13T22:58:54.103Z,183.18
2022-10-13T23:01:22.963Z,173.45
2022-10-13T23:03:54.105Z,173.05
2022-10-13T23:06:24.153Z,181.70
2022-10-13T23:08:52.860Z,180.25
2022-10-13T23:11:21.130Z,191.80
2022-10-13T23:13:49.220Z,193.15
2022-10-13T23:16:19.074Z,188.07
2022-10-13T23:18:47.017Z,184.68
2022-10-13T23:21:19.561Z,186.38
2022-10-13T23:23:47.873Z,185.55
2022-10-13T23:26:17.486Z,183.77
2022-10-13T23:28:46.559Z,182.43
2022-10-13T23:31:16.356Z,186.65
2022-10-13T23:33:44.754Z,182.77
2022-10-13T23:36:18.066Z,183.10
2022-10-13T23:38:46.205Z,177.98
2022-10-13T23:41:15.634Z,182.60
2022-10-13T23:43:44.753Z,171.10
2022-10-13T23:46:13.076Z,184.07
2022-10-13T23:48:41.908Z,189.90
2022-10-13T23:51:12.219Z,173.18
2022-10-13T23:53:42.682Z,184.75
2022-10-13T23:56:12.072Z,179.25
2022-10-13T23:58:41.508Z,174.85
